sensor_id;sensor_type;location;lat;lon;timestamp;pressure;altitude;pressure_sealevel;temperature;humidity
10462;BME280;5278;42.656;23.374;2023-03-04T00:02:26;94664.06;;;8.46;95.71
10462;BME280;5278;42.656;23.374;2023-03-04T00:04:53;94663.88;;;8.47;96.12
10462;BME280;5278;42.656;23.374;2023-03-04T00:07:22;94663.88;;;8.47;95.86
10462;BME280;5278;42.656;23.374;2023-03-04T00:09:49;94660.19;;;8.50;96.21
10462;BME280;5278;42.656;23.374;2023-03-04T00:12:16;94660.69;;;8.45;96.03
10462;BME280;5278;42.656;23.374;2023-03-04T00:14:42;94657.75;;;8.40;96.58
10462;BME280;5278;42.656;23.374;2023-03-04T00:17:09;94652.41;;;8.34;97.12
10462;BME280;5278;42.656;23.374;2023-03-04T00:19:36;94643.66;;;8.27;97.15
10462;BME280;5278;42.656;23.374;2023-03-04T00:22:04;94644.09;;;8.14;97.18
10462;BME280;5278;42.656;23.374;2023-03-04T00:24:32;94646.38;;;8.25;96.77
10462;BME280;5278;42.656;23.374;2023-03-04T00:27:00;94651.91;;;8.30;96.88
10462;BME280;5278;42.656;23.374;2023-03-04T00:29:28;94643.00;;;8.33;97.19
10462;BME280;5278;42.656;23.374;2023-03-04T00:31:55;94648.69;;;8.36;96.56
10462;BME280;5278;42.656;23.374;2023-03-04T00:34:22;94641.09;;;8.35;96.53
10462;BME280;5278;42.656;23.374;2023-03-04T00:36:49;94643.19;;;8.39;95.78
10462;BME280;5278;42.656;23.374;2023-03-04T00:39:16;94646.25;;;8.43;95.87
10462;BME280;5278;42.656;23.374;2023-03-04T00:41:44;94636.25;;;8.40;95.47
10462;BME280;5278;42.656;23.374;2023-03-04T00:44:11;94639.94;;;8.37;95.61
10462;BME280;5278;42.656;23.374;2023-03-04T00:46:38;94649.00;;;8.33;96.56
10462;BME280;5278;42.656;23.374;2023-03-04T00:49:05;94644.78;;;8.32;96.53
10462;BME280;5278;42.656;23.374;2023-03-04T00:51:32;94644.63;;;8.34;96.27
10462;BME280;5278;42.656;23.374;2023-03-04T00:53:59;94641.22;;;8.33;95.81
10462;BME280;5278;42.656;23.374;2023-03-04T00:56:26;94639.31;;;8.35;96.21
10462;BME280;5278;42.656;23.374;2023-03-04T00:58:55;94634.44;;;8.32;96.12
10462;BME280;5278;42.656;23.374;2023-03-04T01:01:22;94629.91;;;8.34;96.19
10462;BME280;5278;42.656;23.374;2023-03-04T01:03:49;94618.69;;;8.17;96.33
10462;BME280;5278;42.656;23.374;2023-03-04T01:06:16;94644.34;;;8.37;95.99
10462;BME280;5278;42.656;23.374;2023-03-04T01:08:43;94644.66;;;8.42;96.03
10462;BME280;5278;42.656;23.374;2023-03-04T01:11:10;94640.59;;;8.39;96.85
10462;BME280;5278;42.656;23.374;2023-03-04T01:13:38;94629.59;;;8.37;96.65
10462;BME280;5278;42.656;23.374;2023-03-04T01:16:07;94624.59;;;8.60;100.00
10462;BME280;5278;42.656;23.374;2023-03-04T01:18:35;94615.44;;;10.90;100.00
10462;BME280;5278;42.656;23.374;2023-03-04T01:21:03;94604.97;;;11.56;97.64
10462;BME280;5278;42.656;23.374;2023-03-04T01:23:31;94609.91;;;11.37;87.29
10462;BME280;5278;42.656;23.374;2023-03-04T01:25:58;94623.44;;;11.03;83.27
10462;BME280;5278;42.656;23.374;2023-03-04T01:28:25;94616.72;;;10.71;82.37
10462;BME280;5278;42.656;23.374;2023-03-04T01:30:52;94614.91;;;10.34;83.89
10462;BME280;5278;42.656;23.374;2023-03-04T01:33:20;94615.59;;;9.97;85.23
10462;BME280;5278;42.656;23.374;2023-03-04T01:35:47;94611.50;;;9.72;86.72
10462;BME280;5278;42.656;23.374;2023-03-04T01:38:14;94601.09;;;9.49;87.80
10462;BME280;5278;42.656;23.374;2023-03-04T01:40:41;94609.41;;;9.36;88.98
10462;BME280;5278;42.656;23.374;2023-03-04T01:43:11;94605.53;;;9.24;89.23
10462;BME280;5278;42.656;23.374;2023-03-04T01:45:41;94597.81;;;9.08;89.44
10462;BME280;5278;42.656;23.374;2023-03-04T01:48:11;94597.53;;;8.95;89.90
10462;BME280;5278;42.656;23.374;2023-03-04T01:50:43;94583.81;;;8.70;91.10
10462;BME280;5278;42.656;23.374;2023-03-04T01:53:17;94596.75;;;8.70;91.86
10462;BME280;5278;42.656;23.374;2023-03-04T01:55:46;94584.59;;;8.62;92.64
10462;BME280;5278;42.656;23.374;2023-03-04T01:58:13;94596.25;;;8.58;92.79
10462;BME280;5278;42.656;23.374;2023-03-04T02:00:40;94595.63;;;8.48;93.29
10462;BME280;5278;42.656;23.374;2023-03-04T02:03:10;94595.28;;;8.43;93.69
10462;BME280;5278;42.656;23.374;2023-03-04T02:05:40;94583.31;;;8.26;94.35
10462;BME280;5278;42.656;23.374;2023-03-04T02:08:09;94590.75;;;8.37;93.87
10462;BME280;5278;42.656;23.374;2023-03-04T02:10:36;94585.25;;;8.32;93.12
10462;BME280;5278;42.656;23.374;2023-03-04T02:13:04;94595.31;;;8.35;93.54
10462;BME280;5278;42.656;23.374;2023-03-04T02:15:31;94597.88;;;8.43;93.31
10462;BME280;5278;42.656;23.374;2023-03-04T02:17:59;94584.28;;;8.33;92.99
10462;BME280;5278;42.656;23.374;2023-03-04T02:20:36;94589.16;;;8.36;93.17
10462;BME280;5278;42.656;23.374;2023-03-04T02:23:11;94592.38;;;8.38;93.52
10462;BME280;5278;42.656;23.374;2023-03-04T02:25:44;94594.97;;;8.38;93.78
10462;BME280;5278;42.656;23.374;2023-03-04T02:28:15;94586.25;;;8.39;93.72
10462;BME280;5278;42.656;23.374;2023-03-04T02:30:42;94590.94;;;8.36;93.60
10462;BME280;5278;42.656;23.374;2023-03-04T02:33:13;94587.22;;;8.38;94.07
10462;BME280;5278;42.656;23.374;2023-03-04T02:35:44;94585.78;;;8.36;93.65
10462;BME280;5278;42.656;23.374;2023-03-04T02:38:11;94584.00;;;8.36;93.63
10462;BME280;5278;42.656;23.374;2023-03-04T02:40:40;94588.19;;;8.37;93.67
10462;BME280;5278;42.656;23.374;2023-03-04T02:43:09;94586.25;;;8.39;93.35
10462;BME280;5278;42.656;23.374;2023-03-04T02:45:41;94578.81;;;8.36;93.42
10462;BME280;5278;42.656;23.374;2023-03-04T02:48:09;94580.91;;;8.33;92.83
10462;BME280;5278;42.656;23.374;2023-03-04T02:50:40;94584.63;;;8.30;92.67
10462;BME280;5278;42.656;23.374;2023-03-04T02:53:08;94575.53;;;8.26;92.83
10462;BME280;5278;42.656;23.374;2023-03-04T02:55:35;94580.72;;;8.26;92.47
10462;BME280;5278;42.656;23.374;2023-03-04T02:58:02;94582.31;;;8.19;93.55
10462;BME280;5278;42.656;23.374;2023-03-04T03:00:29;94583.63;;;8.15;93.71
10462;BME280;5278;42.656;23.374;2023-03-04T03:02:58;94580.22;;;8.14;93.77
10462;BME280;5278;42.656;23.374;2023-03-04T03:05:26;94579.56;;;8.12;93.98
10462;BME280;5278;42.656;23.374;2023-03-04T03:07:54;94583.63;;;8.15;93.71
10462;BME280;5278;42.656;23.374;2023-03-04T03:10:21;94548.03;;;8.01;93.31
10462;BME280;5278;42.656;23.374;2023-03-04T03:12:48;94583.78;;;8.21;92.94
10462;BME280;5278;42.656;23.374;2023-03-04T03:15:15;94582.50;;;8.26;92.74
10462;BME280;5278;42.656;23.374;2023-03-04T03:17:42;94579.91;;;8.26;92.98
10462;BME280;5278;42.656;23.374;2023-03-04T03:20:12;94576.66;;;8.23;93.60
10462;BME280;5278;42.656;23.374;2023-03-04T03:22:40;94563.22;;;8.12;92.94
10462;BME280;5278;42.656;23.374;2023-03-04T03:25:09;94576.66;;;8.15;93.24
10462;BME280;5278;42.656;23.374;2023-03-04T03:27:37;94585.56;;;8.21;93.30
10462;BME280;5278;42.656;23.374;2023-03-04T03:30:05;94577.31;;;8.17;92.77
10462;BME280;5278;42.656;23.374;2023-03-04T03:32:32;94584.25;;;8.09;93.14
10462;BME280;5278;42.656;23.374;2023-03-04T03:34:59;94571.94;;;8.03;93.64
10462;BME280;5278;42.656;23.374;2023-03-04T03:37:27;94457.78;;;7.33;93.16
10462;BME280;5278;42.656;23.374;2023-03-04T03:39:54;94572.94;;;8.02;93.43
10462;BME280;5278;42.656;23.374;2023-03-04T03:42:21;94564.03;;;7.96;93.25
10462;BME280;5278;42.656;23.374;2023-03-04T03:44:48;94562.56;;;7.94;93.83
10462;BME280;5278;42.656;23.374;2023-03-04T03:47:15;94568.06;;;7.91;93.70
10462;BME280;5278;42.656;23.374;2023-03-04T03:49:42;94564.19;;;7.87;93.91
10462;BME280;5278;42.656;23.374;2023-03-04T03:52:09;94570.97;;;7.79;93.62
10462;BME280;5278;42.656;23.374;2023-03-04T03:54:38;94566.75;;;7.78;93.72
10462;BME280;5278;42.656;23.374;2023-03-04T03:57:05;94565.13;;;7.77;93.18
10462;BME280;5278;42.656;23.374;2023-03-04T03:59:32;94553.19;;;7.76;93.41
10462;BME280;5278;42.656;23.374;2023-03-04T04:01:58;94550.75;;;7.75;93.54
10462;BME280;5278;42.656;23.374;2023-03-04T04:04:25;94558.66;;;7.73;93.61
10462;BME280;5278;42.656;23.374;2023-03-04T04:06:52;94554.78;;;7.69;93.58
10462;BME280;5278;42.656;23.374;2023-03-04T04:09:19;94553.78;;;7.62;93.71
10462;BME280;5278;42.656;23.374;2023-03-04T04:11:48;94553.44;;;7.57;94.44
10462;BME280;5278;42.656;23.374;2023-03-04T04:14:15;94547.94;;;7.52;94.49
10462;BME280;5278;42.656;23.374;2023-03-04T04:16:42;94553.75;;;7.46;94.83
10462;BME280;5278;42.656;23.374;2023-03-04T04:19:15;94559.41;;;7.42;95.48
10462;BME280;5278;42.656;23.374;2023-03-04T04:21:42;94552.91;;;7.38;95.64
10462;BME280;5278;42.656;23.374;2023-03-04T04:24:09;94560.03;;;7.35;95.89
10462;BME280;5278;42.656;23.374;2023-03-04T04:26:35;94550.78;;;7.33;96.28
10462;BME280;5278;42.656;23.374;2023-03-04T04:29:04;94556.94;;;7.32;96.89
10462;BME280;5278;42.656;23.374;2023-03-04T04:31:31;94554.19;;;7.33;96.51
10462;BME280;5278;42.656;23.374;2023-03-04T04:33:58;94560.16;;;7.34;96.37
10462;BME280;5278;42.656;23.374;2023-03-04T04:36:25;94564.53;;;7.33;96.70
10462;BME280;5278;42.656;23.374;2023-03-04T04:38:52;94557.44;;;7.35;96.47
10462;BME280;5278;42.656;23.374;2023-03-04T04:41:21;94555.66;;;7.36;96.49
10462;BME280;5278;42.656;23.374;2023-03-04T04:43:48;94544.53;;;7.35;96.92
10462;BME280;5278;42.656;23.374;2023-03-04T04:46:17;94557.13;;;7.39;96.29
10462;BME280;5278;42.656;23.374;2023-03-04T04:48:44;94548.72;;;7.37;96.71
10462;BME280;5278;42.656;23.374;2023-03-04T04:51:13;94546.28;;;7.27;96.71
10462;BME280;5278;42.656;23.374;2023-03-04T04:53:41;94554.16;;;7.25;96.65
10462;BME280;5278;42.656;23.374;2023-03-04T04:56:10;94556.28;;;7.30;96.98
10462;BME280;5278;42.656;23.374;2023-03-04T04:58:37;94564.53;;;7.33;96.66
10462;BME280;5278;42.656;23.374;2023-03-04T05:01:05;94564.03;;;7.30;96.26
10462;BME280;5278;42.656;23.374;2023-03-04T05:03:34;94561.78;;;7.27;95.92
10462;BME280;5278;42.656;23.374;2023-03-04T05:06:02;94564.97;;;7.21;93.69
10462;BME280;5278;42.656;23.374;2023-03-04T05:08:30;94570.94;;;7.21;93.82
10462;BME280;5278;42.656;23.374;2023-03-04T05:11:00;94574.03;;;7.25;92.57
10462;BME280;5278;42.656;23.374;2023-03-04T05:13:27;94581.78;;;7.25;92.15
10462;BME280;5278;42.656;23.374;2023-03-04T05:15:55;94587.44;;;7.28;92.30
10462;BME280;5278;42.656;23.374;2023-03-04T05:18:23;94576.34;;;7.36;91.91
10462;BME280;5278;42.656;23.374;2023-03-04T05:20:55;94576.22;;;7.46;91.80
10462;BME280;5278;42.656;23.374;2023-03-04T05:23:22;94586.56;;;7.54;91.75
10462;BME280;5278;42.656;23.374;2023-03-04T05:25:50;94579.63;;;7.54;92.24
10462;BME280;5278;42.656;23.374;2023-03-04T05:28:17;94585.78;;;7.61;92.31
10462;BME280;5278;42.656;23.374;2023-03-04T05:30:44;94587.91;;;7.66;93.00
10462;BME280;5278;42.656;23.374;2023-03-04T05:33:13;94592.94;;;7.75;92.61
10462;BME280;5278;42.656;23.374;2023-03-04T05:35:41;94594.56;;;7.76;90.53
10462;BME280;5278;42.656;23.374;2023-03-04T05:38:12;94594.22;;;7.79;89.40
10462;BME280;5278;42.656;23.374;2023-03-04T05:40:40;94591.78;;;7.78;88.85
10462;BME280;5278;42.656;23.374;2023-03-04T05:43:09;94593.75;;;7.84;89.36
10462;BME280;5278;42.656;23.374;2023-03-04T05:45:36;94597.50;;;7.90;90.18
10462;BME280;5278;42.656;23.374;2023-03-04T05:48:04;94599.13;;;7.91;91.09
10462;BME280;5278;42.656;23.374;2023-03-04T05:50:31;94579.72;;;7.87;90.81
10462;BME280;5278;42.656;23.374;2023-03-04T05:52:58;94601.41;;;8.02;90.70
10462;BME280;5278;42.656;23.374;2023-03-04T05:55:27;94596.69;;;7.97;90.67
10462;BME280;5278;42.656;23.374;2023-03-04T05:57:54;94597.00;;;7.94;91.34
10462;BME280;5278;42.656;23.374;2023-03-04T06:00:23;94598.16;;;8.08;91.12
10462;BME280;5278;42.656;23.374;2023-03-04T06:02:50;94604.63;;;8.12;91.31
10462;BME280;5278;42.656;23.374;2023-03-04T06:05:18;94612.09;;;8.15;90.61
10462;BME280;5278;42.656;23.374;2023-03-04T06:07:48;94618.41;;;8.20;89.87
10462;BME280;5278;42.656;23.374;2023-03-04T06:10:16;94613.56;;;8.26;90.69
10462;BME280;5278;42.656;23.374;2023-03-04T06:12:45;94604.00;;;8.26;91.03
10462;BME280;5278;42.656;23.374;2023-03-04T06:15:12;94618.41;;;8.29;90.35
10462;BME280;5278;42.656;23.374;2023-03-04T06:17:40;94611.78;;;8.26;90.83
10462;BME280;5278;42.656;23.374;2023-03-04T06:20:09;94615.47;;;8.23;90.77
10462;BME280;5278;42.656;23.374;2023-03-04T06:22:37;94615.31;;;8.25;90.92
10462;BME280;5278;42.656;23.374;2023-03-04T06:25:05;94612.75;;;8.25;90.98
10462;BME280;5278;42.656;23.374;2023-03-04T06:27:32;94605.31;;;8.38;90.09
10462;BME280;5278;42.656;23.374;2023-03-04T06:30:00;94616.34;;;8.48;89.12
10462;BME280;5278;42.656;23.374;2023-03-04T06:32:27;94620.53;;;8.49;88.45
10462;BME280;5278;42.656;23.374;2023-03-04T06:34:54;94621.66;;;8.47;88.44
10462;BME280;5278;42.656;23.374;2023-03-04T06:37:20;94624.09;;;8.48;87.30
10462;BME280;5278;42.656;23.374;2023-03-04T06:39:49;94609.69;;;8.54;86.68
10462;BME280;5278;42.656;23.374;2023-03-04T06:42:16;94624.44;;;8.61;85.81
10462;BME280;5278;42.656;23.374;2023-03-04T06:44:43;94627.97;;;8.69;85.06
10462;BME280;5278;42.656;23.374;2023-03-04T06:47:11;94625.53;;;8.67;84.31
10462;BME280;5278;42.656;23.374;2023-03-04T06:49:40;94633.50;;;8.66;83.90
10462;BME280;5278;42.656;23.374;2023-03-04T06:52:08;94637.06;;;8.64;83.75
10462;BME280;5278;42.656;23.374;2023-03-04T06:54:38;94635.44;;;8.55;83.86
10462;BME280;5278;42.656;23.374;2023-03-04T06:57:05;94633.50;;;8.49;83.46
10462;BME280;5278;42.656;23.374;2023-03-04T06:59:33;94633.00;;;8.46;84.17
10462;BME280;5278;42.656;23.374;2023-03-04T07:02:01;94635.75;;;8.44;84.06
10462;BME280;5278;42.656;23.374;2023-03-04T07:04:29;94522.59;;;7.56;84.84
10462;BME280;5278;42.656;23.374;2023-03-04T07:06:57;94640.13;;;8.36;84.88
10462;BME280;5278;42.656;23.374;2023-03-04T07:09:24;94636.06;;;8.33;85.23
10462;BME280;5278;42.656;23.374;2023-03-04T07:11:53;94644.00;;;8.40;85.64
10462;BME280;5278;42.656;23.374;2023-03-04T07:14:20;94650.00;;;8.40;85.53
10462;BME280;5278;42.656;23.374;2023-03-04T07:16:47;94643.53;;;8.36;85.80
10462;BME280;5278;42.656;23.374;2023-03-04T07:19:14;94650.63;;;8.34;85.54
10462;BME280;5278;42.656;23.374;2023-03-04T07:21:42;94641.09;;;8.35;85.75
10462;BME280;5278;42.656;23.374;2023-03-04T07:24:09;94638.63;;;8.25;86.18
10462;BME280;5278;42.656;23.374;2023-03-04T07:26:36;94650.91;;;8.23;86.57
10462;BME280;5278;42.656;23.374;2023-03-04T07:29:03;94644.09;;;8.22;86.81
10462;BME280;5278;42.656;23.374;2023-03-04T07:31:31;94609.59;;;7.97;86.98
10462;BME280;5278;42.656;23.374;2023-03-04T07:34:03;94642.50;;;8.21;86.58
10462;BME280;5278;42.656;23.374;2023-03-04T07:36:30;94638.59;;;8.17;86.06
10462;BME280;5278;42.656;23.374;2023-03-04T07:38:59;94649.94;;;8.24;86.55
10462;BME280;5278;42.656;23.374;2023-03-04T07:41:27;94644.09;;;8.22;86.96
10462;BME280;5278;42.656;23.374;2023-03-04T07:43:55;94630.81;;;8.09;87.03
10462;BME280;5278;42.656;23.374;2023-03-04T07:46:23;94653.22;;;8.42;86.92
10462;BME280;5278;42.656;23.374;2023-03-04T07:48:50;94642.06;;;8.58;86.16
10462;BME280;5278;42.656;23.374;2023-03-04T07:51:19;94647.59;;;8.71;85.40
10462;BME280;5278;42.656;23.374;2023-03-04T07:53:48;94635.44;;;8.80;84.98
10462;BME280;5278;42.656;23.374;2023-03-04T07:56:19;94628.63;;;8.79;84.55
10462;BME280;5278;42.656;23.374;2023-03-04T07:58:49;94639.63;;;8.89;85.37
10462;BME280;5278;42.656;23.374;2023-03-04T08:01:19;94632.31;;;8.92;84.90
10462;BME280;5278;42.656;23.374;2023-03-04T08:03:47;94635.06;;;8.99;85.19
10462;BME280;5278;42.656;23.374;2023-03-04T08:06:15;94594.47;;;8.75;85.43
10462;BME280;5278;42.656;23.374;2023-03-04T08:08:45;94627.31;;;8.91;85.16
10462;BME280;5278;42.656;23.374;2023-03-04T08:11:14;94641.38;;;9.04;84.90
10462;BME280;5278;42.656;23.374;2023-03-04T08:13:43;94630.38;;;9.11;84.75
10462;BME280;5278;42.656;23.374;2023-03-04T08:16:11;94635.69;;;9.25;83.98
10462;BME280;5278;42.656;23.374;2023-03-04T08:18:40;94626.53;;;9.45;83.17
10462;BME280;5278;42.656;23.374;2023-03-04T08:21:09;94628.38;;;9.68;82.96
10462;BME280;5278;42.656;23.374;2023-03-04T08:23:36;94626.19;;;9.87;80.98
10462;BME280;5278;42.656;23.374;2023-03-04T08:26:08;94633.09;;;10.03;81.01
10462;BME280;5278;42.656;23.374;2023-03-04T08:28:35;94626.25;;;10.10;80.11
10462;BME280;5278;42.656;23.374;2023-03-04T08:31:04;94629.56;;;10.27;79.37
10462;BME280;5278;42.656;23.374;2023-03-04T08:33:32;94620.41;;;10.39;79.66
10462;BME280;5278;42.656;23.374;2023-03-04T08:35:59;94615.22;;;10.39;78.53
10462;BME280;5278;42.656;23.374;2023-03-04T08:38:26;94621.88;;;10.56;77.98
10462;BME280;5278;42.656;23.374;2023-03-04T08:40:54;94623.97;;;10.61;77.88
10462;BME280;5278;42.656;23.374;2023-03-04T08:43:23;94616.47;;;10.66;77.74
10462;BME280;5278;42.656;23.374;2023-03-04T08:45:51;94621.06;;;10.78;77.00
10462;BME280;5278;42.656;23.374;2023-03-04T08:48:21;94613.66;;;10.90;75.98
10462;BME280;5278;42.656;23.374;2023-03-04T08:50:49;94619.50;;;11.07;75.95
10462;BME280;5278;42.656;23.374;2023-03-04T08:53:17;94613.59;;;11.13;75.06
10462;BME280;5278;42.656;23.374;2023-03-04T08:55:45;94611.44;;;11.16;76.09
10462;BME280;5278;42.656;23.374;2023-03-04T08:58:13;94617.97;;;11.12;75.90
10462;BME280;5278;42.656;23.374;2023-03-04T09:00:41;94608.66;;;11.03;76.02
10462;BME280;5278;42.656;23.374;2023-03-04T09:03:09;94616.81;;;11.00;76.18
10462;BME280;5278;42.656;23.374;2023-03-04T09:05:39;94610.06;;;10.91;75.90
10462;BME280;5278;42.656;23.374;2023-03-04T09:08:06;94616.50;;;10.81;75.81
10462;BME280;5278;42.656;23.374;2023-03-04T09:10:33;94607.19;;;10.86;75.59
10462;BME280;5278;42.656;23.374;2023-03-04T09:13:00;94611.94;;;10.97;75.37
10462;BME280;5278;42.656;23.374;2023-03-04T09:15:28;94606.22;;;11.02;74.79
10462;BME280;5278;42.656;23.374;2023-03-04T09:17:54;94612.59;;;11.14;74.59
10462;BME280;5278;42.656;23.374;2023-03-04T09:20:22;94602.03;;;11.30;74.09
10462;BME280;5278;42.656;23.374;2023-03-04T09:22:50;94600.41;;;11.44;73.14
10462;BME280;5278;42.656;23.374;2023-03-04T09:25:17;94598.63;;;11.59;72.25
10462;BME280;5278;42.656;23.374;2023-03-04T09:27:44;94595.63;;;11.62;72.58
10462;BME280;5278;42.656;23.374;2023-03-04T09:30:11;94595.56;;;11.70;72.40
10462;BME280;5278;42.656;23.374;2023-03-04T09:32:38;94594.56;;;11.86;70.63
10462;BME280;5278;42.656;23.374;2023-03-04T09:35:06;94580.25;;;11.96;69.64
10462;BME280;5278;42.656;23.374;2023-03-04T09:37:34;94586.22;;;12.12;69.64
10462;BME280;5278;42.656;23.374;2023-03-04T09:40:05;94589.50;;;12.35;67.37
10462;BME280;5278;42.656;23.374;2023-03-04T09:42:34;94580.59;;;12.50;66.16
10462;BME280;5278;42.656;23.374;2023-03-04T09:45:05;94582.44;;;12.78;64.64
10462;BME280;5278;42.656;23.374;2023-03-04T09:47:34;94574.75;;;12.98;64.00
10462;BME280;5278;42.656;23.374;2023-03-04T09:50:08;94573.88;;;13.12;62.59
10462;BME280;5278;42.656;23.374;2023-03-04T09:52:49;94565.34;;;13.31;62.80
10462;BME280;5278;42.656;23.374;2023-03-04T09:55:25;94561.81;;;13.45;61.78
10462;BME280;5278;42.656;23.374;2023-03-04T09:57:59;94557.88;;;13.62;61.08
10462;BME280;5278;42.656;23.374;2023-03-04T10:00:32;94564.44;;;13.93;59.42
10462;BME280;5278;42.656;23.374;2023-03-04T10:03:07;94558.25;;;14.13;57.87
10462;BME280;5278;42.656;23.374;2023-03-04T10:05:42;94551.03;;;14.22;57.24
10462;BME280;5278;42.656;23.374;2023-03-04T10:08:24;94548.84;;;14.32;56.84
10462;BME280;5278;42.656;23.374;2023-03-04T10:10:55;94549.69;;;14.39;56.35
10462;BME280;5278;42.656;23.374;2023-03-04T10:13:30;94495.16;;;14.03;55.79
10462;BME280;5278;42.656;23.374;2023-03-04T10:15:59;94547.22;;;14.31;54.76
10462;BME280;5278;42.656;23.374;2023-03-04T10:18:30;94535.78;;;14.19;55.32
10462;BME280;5278;42.656;23.374;2023-03-04T10:21:01;94540.78;;;14.20;55.25
10462;BME280;5278;42.656;23.374;2023-03-04T10:23:30;94533.13;;;14.12;55.61
10462;BME280;5278;42.656;23.374;2023-03-04T10:26:01;94535.53;;;14.07;56.73
10462;BME280;5278;42.656;23.374;2023-03-04T10:28:36;94527.44;;;13.83;59.22
10462;BME280;5278;42.656;23.374;2023-03-04T10:31:10;94524.13;;;13.61;59.30
10462;BME280;5278;42.656;23.374;2023-03-04T10:33:39;94520.28;;;13.50;59.52
10462;BME280;5278;42.656;23.374;2023-03-04T10:39:08;94529.16;;;13.15;61.33
10462;BME280;5278;42.656;23.374;2023-03-04T10:41:41;94508.97;;;13.02;62.19
10462;BME280;5278;42.656;23.374;2023-03-04T10:44:14;94513.81;;;13.05;61.68
10462;BME280;5278;42.656;23.374;2023-03-04T10:46:43;94510.28;;;13.13;61.16
10462;BME280;5278;42.656;23.374;2023-03-04T10:49:12;94507.31;;;13.22;60.86
10462;BME280;5278;42.656;23.374;2023-03-04T10:51:42;94507.59;;;13.34;60.93
10462;BME280;5278;42.656;23.374;2023-03-04T10:54:20;94494.31;;;13.35;60.38
10462;BME280;5278;42.656;23.374;2023-03-04T10:57:05;94494.91;;;13.31;60.19
10462;BME280;5278;42.656;23.374;2023-03-04T10:59:42;94486.66;;;13.82;58.82
10462;BME280;5278;42.656;23.374;2023-03-04T11:02:24;94483.28;;;14.80;54.84
10462;BME280;5278;42.656;23.374;2023-03-04T11:04:55;94475.56;;;15.75;51.82
10462;BME280;5278;42.656;23.374;2023-03-04T11:07:24;94463.72;;;16.29;49.35
10462;BME280;5278;42.656;23.374;2023-03-04T11:09:51;94455.78;;;16.67;48.66
10462;BME280;5278;42.656;23.374;2023-03-04T11:12:31;94451.22;;;16.99;47.39
10462;BME280;5278;42.656;23.374;2023-03-04T11:15:00;94450.59;;;17.03;46.39
10462;BME280;5278;42.656;23.374;2023-03-04T11:17:30;94446.47;;;16.71;46.58
10462;BME280;5278;42.656;23.374;2023-03-04T11:20:13;94452.22;;;16.55;47.06
10462;BME280;5278;42.656;23.374;2023-03-04T11:22:44;94448.75;;;16.36;47.34
10462;BME280;5278;42.656;23.374;2023-03-04T11:25:22;94436.97;;;16.20;48.59
10462;BME280;5278;42.656;23.374;2023-03-04T11:27:54;94430.72;;;16.21;49.44
10462;BME280;5278;42.656;23.374;2023-03-04T11:30:38;94434.19;;;16.15;49.53
10462;BME280;5278;42.656;23.374;2023-03-04T11:33:25;94419.09;;;16.11;49.87
10462;BME280;5278;42.656;23.374;2023-03-04T11:36:02;94414.69;;;16.05;49.33
10462;BME280;5278;42.656;23.374;2023-03-04T11:38:36;94412.16;;;15.98;49.72
10462;BME280;5278;42.656;23.374;2023-03-04T11:41:10;94416.41;;;15.92;49.95
10462;BME280;5278;42.656;23.374;2023-03-04T11:43:44;94405.94;;;15.61;50.06
10462;BME280;5278;42.656;23.374;2023-03-04T11:49:33;94397.44;;;15.28;51.61
10462;BME280;5278;42.656;23.374;2023-03-04T11:52:11;94408.13;;;15.20;52.48
10462;BME280;5278;42.656;23.374;2023-03-04T11:54:46;94335.69;;;14.62;52.44
10462;BME280;5278;42.656;23.374;2023-03-04T11:57:25;94398.19;;;15.35;51.77
10462;BME280;5278;42.656;23.374;2023-03-04T12:00:03;94407.44;;;15.37;52.84
10462;BME280;5278;42.656;23.374;2023-03-04T12:02:44;94400.41;;;15.38;53.17
10462;BME280;5278;42.656;23.374;2023-03-04T12:05:40;94400.75;;;15.03;52.21
10462;BME280;5278;42.656;23.374;2023-03-04T12:08:36;94398.22;;;14.77;53.74
10462;BME280;5278;42.656;23.374;2023-03-04T12:11:07;94393.66;;;14.53;55.07
10462;BME280;5278;42.656;23.374;2023-03-04T12:13:45;94311.50;;;13.83;55.55
10462;BME280;5278;42.656;23.374;2023-03-04T12:16:29;94365.50;;;14.22;56.08
10462;BME280;5278;42.656;23.374;2023-03-04T12:19:16;94379.56;;;14.21;56.35
10462;BME280;5278;42.656;23.374;2023-03-04T12:22:00;94370.75;;;14.09;56.65
10462;BME280;5278;42.656;23.374;2023-03-04T12:24:40;94383.00;;;14.02;57.37
10462;BME280;5278;42.656;23.374;2023-03-04T12:27:20;94373.78;;;13.93;57.07
10462;BME280;5278;42.656;23.374;2023-03-04T12:29:55;94377.38;;;14.18;76.59
10462;BME280;5278;42.656;23.374;2023-03-04T12:32:35;94364.94;;;15.35;74.20
10462;BME280;5278;42.656;23.374;2023-03-04T12:35:27;94311.94;;;15.78;60.14
10462;BME280;5278;42.656;23.374;2023-03-04T12:38:26;94358.84;;;16.90;53.02
10462;BME280;5278;42.656;23.374;2023-03-04T12:41:24;94359.03;;;17.55;49.71
10462;BME280;5278;42.656;23.374;2023-03-04T12:44:03;94356.22;;;17.98;47.02
10462;BME280;5278;42.656;23.374;2023-03-04T12:46:43;94350.75;;;18.23;45.49
10462;BME280;5278;42.656;23.374;2023-03-04T12:49:31;94353.03;;;18.54;43.86
10462;BME280;5278;42.656;23.374;2023-03-04T12:52:30;94346.50;;;18.68;43.21
10462;BME280;5278;42.656;23.374;2023-03-04T12:55:03;94337.78;;;18.79;42.68
10462;BME280;5278;42.656;23.374;2023-03-04T12:57:35;94336.28;;;18.83;42.38
10462;BME280;5278;42.656;23.374;2023-03-04T13:00:19;94332.63;;;18.84;42.34
10462;BME280;5278;42.656;23.374;2023-03-04T13:03:01;94329.19;;;18.96;41.63
10462;BME280;5278;42.656;23.374;2023-03-04T13:05:47;94326.38;;;19.14;41.23
10462;BME280;5278;42.656;23.374;2023-03-04T13:08:28;94292.13;;;18.85;41.31
10462;BME280;5278;42.656;23.374;2023-03-04T13:11:00;94324.44;;;19.09;41.52
10462;BME280;5278;42.656;23.374;2023-03-04T13:13:36;94323.72;;;19.14;41.05
10462;BME280;5278;42.656;23.374;2023-03-04T13:16:28;94316.78;;;19.08;41.21
10462;BME280;5278;42.656;23.374;2023-03-04T13:19:40;94308.44;;;18.99;41.27
10462;BME280;5278;42.656;23.374;2023-03-04T13:22:33;94313.16;;;18.97;41.26
10462;BME280;5278;42.656;23.374;2023-03-04T13:25:29;94309.53;;;18.86;41.73
10462;BME280;5278;42.656;23.374;2023-03-04T13:28:33;94312.28;;;18.68;42.11
10462;BME280;5278;42.656;23.374;2023-03-04T13:31:26;94309.53;;;18.63;42.15
10462;BME280;5278;42.656;23.374;2023-03-04T13:34:01;94309.13;;;18.43;42.21